sensor_id;sensor_type;location;lat;lon;timestamp;pressure;altitude;pressure_sealevel;temperature;humidity
80682;BME280;70045;40.200;44.582;2024-03-08T00:02:03;85931.22;;;3.74;61.42
80682;BME280;70045;40.200;44.582;2024-03-08T00:04:29;85935.97;;;3.75;61.03
80682;BME280;70045;40.200;44.582;2024-03-08T00:06:54;85927.19;;;3.73;60.39
80682;BME280;70045;40.200;44.582;2024-03-08T00:09:20;85930.50;;;3.70;60.22
80682;BME280;70045;40.200;44.582;2024-03-08T00:11:45;85927.19;;;3.66;60.72
80682;BME280;70045;40.200;44.582;2024-03-08T00:14:13;85929.41;;;3.64;60.57
80682;BME280;70045;40.200;44.582;2024-03-08T00:16:39;85923.19;;;3.57;60.21
80682;BME280;70045;40.200;44.582;2024-03-08T00:19:04;85932.31;;;3.66;59.28
80682;BME280;70045;40.200;44.582;2024-03-08T00:21:29;85927.19;;;3.66;58.34
80682;BME280;70045;40.200;44.582;2024-03-08T00:23:55;85919.50;;;3.66;57.80
80682;BME280;70045;40.200;44.582;2024-03-08T00:26:23;85922.06;;;3.66;57.72
80682;BME280;70045;40.200;44.582;2024-03-08T00:28:49;85925.75;;;3.65;58.48
80682;BME280;70045;40.200;44.582;2024-03-08T00:31:16;85925.75;;;3.65;58.20
80682;BME280;70045;40.200;44.582;2024-03-08T00:33:42;85921.69;;;3.67;58.11
80682;BME280;70045;40.200;44.582;2024-03-08T00:36:07;85932.31;;;3.66;58.05
80682;BME280;70045;40.200;44.582;2024-03-08T00:38:36;85925.38;;;3.55;57.62
80682;BME280;70045;40.200;44.582;2024-03-08T00:41:01;85930.16;;;3.46;57.69
80682;BME280;70045;40.200;44.582;2024-03-08T00:43:26;85941.88;;;3.44;57.99
80682;BME280;70045;40.200;44.582;2024-03-08T00:45:52;85940.06;;;3.37;57.73
80682;BME280;70045;40.200;44.582;2024-03-08T00:48:17;85930.91;;;3.29;57.47
80682;BME280;70045;40.200;44.582;2024-03-08T00:50:46;85937.88;;;3.28;57.55
80682;BME280;70045;40.200;44.582;2024-03-08T00:53:12;85934.94;;;3.30;57.66
80682;BME280;70045;40.200;44.582;2024-03-08T00:55:38;85937.88;;;3.32;57.55
80682;BME280;70045;40.200;44.582;2024-03-08T00:58:04;85944.09;;;3.20;57.01
80682;BME280;70045;40.200;44.582;2024-03-08T01:00:29;85935.31;;;3.10;57.00
80682;BME280;70045;40.200;44.582;2024-03-08T01:02:57;85937.88;;;3.10;57.09
80682;BME280;70045;40.200;44.582;2024-03-08T01:05:23;85921.41;;;2.93;57.31
80682;BME280;70045;40.200;44.582;2024-03-08T01:07:49;85948.47;;;3.12;57.46
80682;BME280;70045;40.200;44.582;2024-03-08T01:10:14;85951.44;;;3.14;57.52
80682;BME280;70045;40.200;44.582;2024-03-08T01:12:40;85955.81;;;3.10;56.81
80682;BME280;70045;40.200;44.582;2024-03-08T01:15:11;85959.44;;;2.95;56.85
80682;BME280;70045;40.200;44.582;2024-03-08T01:17:37;85961.28;;;2.91;57.11
80682;BME280;70045;40.200;44.582;2024-03-08T01:20:04;85958.38;;;2.92;57.14
80682;BME280;70045;40.200;44.582;2024-03-08T01:22:30;85959.09;;;2.93;58.24
80682;BME280;70045;40.200;44.582;2024-03-08T01:24:58;85960.19;;;2.99;57.63
80682;BME280;70045;40.200;44.582;2024-03-08T01:27:27;85964.22;;;3.04;57.62
80682;BME280;70045;40.200;44.582;2024-03-08T01:29:52;85968.25;;;3.08;56.76
80682;BME280;70045;40.200;44.582;2024-03-08T01:32:18;85969.31;;;3.07;56.93
80682;BME280;70045;40.200;44.582;2024-03-08T01:34:45;85974.84;;;3.06;57.16
80682;BME280;70045;40.200;44.582;2024-03-08T01:37:11;85968.25;;;2.94;57.32
80682;BME280;70045;40.200;44.582;2024-03-08T01:39:39;85968.97;;;2.98;57.63
80682;BME280;70045;40.200;44.582;2024-03-08T01:42:05;85966.78;;;3.00;57.70
80682;BME280;70045;40.200;44.582;2024-03-08T01:44:30;85977.41;;;3.06;57.44
80682;BME280;70045;40.200;44.582;2024-03-08T01:46:55;85973.72;;;3.10;57.42
80682;BME280;70045;40.200;44.582;2024-03-08T01:49:21;85974.09;;;2.98;58.18
80682;BME280;70045;40.200;44.582;2024-03-08T01:51:52;85974.81;;;2.95;58.13
80682;BME280;70045;40.200;44.582;2024-03-08T01:54:19;85983.97;;;2.96;58.06
80682;BME280;70045;40.200;44.582;2024-03-08T01:56:44;85978.47;;;2.94;58.46
80682;BME280;70045;40.200;44.582;2024-03-08T01:59:10;85973.72;;;2.92;58.46
80682;BME280;70045;40.200;44.582;2024-03-08T02:01:35;85976.28;;;2.96;58.77
80682;BME280;70045;40.200;44.582;2024-03-08T02:04:04;85988.00;;;2.97;58.79
80682;BME280;70045;40.200;44.582;2024-03-08T02:06:29;85982.88;;;2.97;58.62
80682;BME280;70045;40.200;44.582;2024-03-08T02:08:55;85989.44;;;2.98;58.74
80682;BME280;70045;40.200;44.582;2024-03-08T02:11:20;85991.66;;;3.03;57.92
80682;BME280;70045;40.200;44.582;2024-03-08T02:13:46;85990.94;;;2.99;58.52
80682;BME280;70045;40.200;44.582;2024-03-08T02:16:20;85998.22;;;2.93;58.54
80682;BME280;70045;40.200;44.582;2024-03-08T02:18:46;85996.75;;;2.81;58.80
80682;BME280;70045;40.200;44.582;2024-03-08T02:21:11;85996.34;;;2.76;59.16
80682;BME280;70045;40.200;44.582;2024-03-08T02:23:37;86001.88;;;2.74;59.25
80682;BME280;70045;40.200;44.582;2024-03-08T02:26:03;86002.59;;;2.71;59.97
80682;BME280;70045;40.200;44.582;2024-03-08T02:28:31;86000.38;;;2.73;59.81
80682;BME280;70045;40.200;44.582;2024-03-08T02:30:57;86000.75;;;2.79;59.63
80682;BME280;70045;40.200;44.582;2024-03-08T02:33:23;86011.75;;;2.83;59.22
80682;BME280;70045;40.200;44.582;2024-03-08T02:35:49;86011.75;;;2.90;59.35
80682;BME280;70045;40.200;44.582;2024-03-08T02:38:19;86014.31;;;2.94;58.93
80682;BME280;70045;40.200;44.582;2024-03-08T02:40:49;86015.78;;;2.98;59.20
80682;BME280;70045;40.200;44.582;2024-03-08T02:43:16;86007.72;;;2.93;59.47
80682;BME280;70045;40.200;44.582;2024-03-08T02:45:42;86010.28;;;2.93;59.48
80682;BME280;70045;40.200;44.582;2024-03-08T02:48:07;86019.44;;;2.94;58.90
80682;BME280;70045;40.200;44.582;2024-03-08T02:50:33;86008.84;;;2.92;59.13
80682;BME280;70045;40.200;44.582;2024-03-08T02:53:02;86016.50;;;2.88;59.22
80682;BME280;70045;40.200;44.582;2024-03-08T02:55:28;86023.81;;;2.90;58.94
80682;BME280;70045;40.200;44.582;2024-03-08T02:57:53;86031.88;;;2.92;59.40
80682;BME280;70045;40.200;44.582;2024-03-08T03:00:19;86024.56;;;2.94;59.02
80682;BME280;70045;40.200;44.582;2024-03-08T03:02:45;86028.97;;;2.97;59.59
80682;BME280;70045;40.200;44.582;2024-03-08T03:05:13;86028.22;;;3.00;59.08
80682;BME280;70045;40.200;44.582;2024-03-08T03:07:39;86024.22;;;2.95;59.10
80682;BME280;70045;40.200;44.582;2024-03-08T03:10:05;86026.03;;;2.98;58.99
80682;BME280;70045;40.200;44.582;2024-03-08T03:12:31;86023.81;;;2.82;58.55
80682;BME280;70045;40.200;44.582;2024-03-08T03:14:57;86029.63;;;2.72;59.00
80682;BME280;70045;40.200;44.582;2024-03-08T03:17:26;86023.06;;;2.68;59.71
80682;BME280;70045;40.200;44.582;2024-03-08T03:19:52;86019.75;;;2.67;58.26
80682;BME280;70045;40.200;44.582;2024-03-08T03:22:18;86024.84;;;2.63;58.81
80682;BME280;70045;40.200;44.582;2024-03-08T03:24:45;86027.38;;;2.53;59.53
80682;BME280;70045;40.200;44.582;2024-03-08T03:27:10;86026.31;;;2.54;59.48
80682;BME280;70045;40.200;44.582;2024-03-08T03:29:39;86030.28;;;2.48;59.60
80682;BME280;70045;40.200;44.582;2024-03-08T03:32:05;86021.53;;;2.49;59.54
80682;BME280;70045;40.200;44.582;2024-03-08T03:34:30;86027.34;;;2.45;59.37
80682;BME280;70045;40.200;44.582;2024-03-08T03:36:55;86028.44;;;2.44;59.33
80682;BME280;70045;40.200;44.582;2024-03-08T03:39:22;86016.38;;;2.41;59.90
80682;BME280;70045;40.200;44.582;2024-03-08T03:41:50;86014.19;;;2.36;59.80
80682;BME280;70045;40.200;44.582;2024-03-08T03:44:15;86022.22;;;2.42;59.57
80682;BME280;70045;40.200;44.582;2024-03-08T03:46:44;86022.59;;;2.44;59.67
80682;BME280;70045;40.200;44.582;2024-03-08T03:49:09;86017.13;;;2.45;59.69
80682;BME280;70045;40.200;44.582;2024-03-08T03:51:35;86025.22;;;2.62;59.81
80682;BME280;70045;40.200;44.582;2024-03-08T03:54:03;86024.16;;;2.77;59.01
80682;BME280;70045;40.200;44.582;2024-03-08T03:56:29;86019.03;;;2.85;58.44
80682;BME280;70045;40.200;44.582;2024-03-08T03:58:54;86020.19;;;2.98;58.55
80682;BME280;70045;40.200;44.582;2024-03-08T04:01:20;86030.44;;;3.05;58.25
80682;BME280;70045;40.200;44.582;2024-03-08T04:03:45;86028.22;;;3.04;57.83
80682;BME280;70045;40.200;44.582;2024-03-08T04:06:14;86027.50;;;3.10;58.28
80682;BME280;70045;40.200;44.582;2024-03-08T04:08:40;86026.44;;;3.26;58.07
80682;BME280;70045;40.200;44.582;2024-03-08T04:11:05;86027.91;;;3.37;57.24
80682;BME280;70045;40.200;44.582;2024-03-08T04:13:31;86031.94;;;3.42;57.68
80682;BME280;70045;40.200;44.582;2024-03-08T04:15:56;86027.56;;;3.43;57.48
80682;BME280;70045;40.200;44.582;2024-03-08T04:18:25;86037.06;;;3.53;57.15
80682;BME280;70045;40.200;44.582;2024-03-08T04:20:50;86040.00;;;3.62;57.72
80682;BME280;70045;40.200;44.582;2024-03-08T04:23:23;86043.66;;;3.65;57.15
80682;BME280;70045;40.200;44.582;2024-03-08T04:25:48;86039.97;;;3.73;56.77
80682;BME280;70045;40.200;44.582;2024-03-08T04:28:14;86029.00;;;3.69;56.57
80682;BME280;70045;40.200;44.582;2024-03-08T04:30:42;86036.31;;;3.81;56.61
80682;BME280;70045;40.200;44.582;2024-03-08T04:33:07;86046.19;;;4.01;56.16
80682;BME280;70045;40.200;44.582;2024-03-08T04:35:33;86040.66;;;4.13;55.39
80682;BME280;70045;40.200;44.582;2024-03-08T04:37:58;86043.94;;;4.24;54.63
80682;BME280;70045;40.200;44.582;2024-03-08T04:40:24;86054.16;;;4.42;54.54
80682;BME280;70045;40.200;44.582;2024-03-08T04:42:53;86056.72;;;4.57;54.55
80682;BME280;70045;40.200;44.582;2024-03-08T04:45:19;86047.81;;;4.72;53.87
80682;BME280;70045;40.200;44.582;2024-03-08T04:47:44;86045.59;;;4.85;52.25
80682;BME280;70045;40.200;44.582;2024-03-08T04:50:09;86047.03;;;4.93;52.56
80682;BME280;70045;40.200;44.582;2024-03-08T04:52:35;86054.34;;;5.02;51.66
80682;BME280;70045;40.200;44.582;2024-03-08T04:55:03;86055.75;;;5.06;51.04
80682;BME280;70045;40.200;44.582;2024-03-08T04:57:29;86055.72;;;5.14;51.91
80682;BME280;70045;40.200;44.582;2024-03-08T04:59:55;86058.97;;;5.28;50.96
80682;BME280;70045;40.200;44.582;2024-03-08T05:02:20;86063.31;;;5.35;50.24
80682;BME280;70045;40.200;44.582;2024-03-08T05:04:45;86064.34;;;5.49;51.19
80682;BME280;70045;40.200;44.582;2024-03-08T05:07:16;86068.69;;;5.62;50.36
80682;BME280;70045;40.200;44.582;2024-03-08T05:09:51;86062.78;;;5.62;49.65
80682;BME280;70045;40.200;44.582;2024-03-08T05:12:18;86064.31;;;5.56;49.98
80682;BME280;70045;40.200;44.582;2024-03-08T05:14:45;86062.03;;;5.65;51.22
80682;BME280;70045;40.200;44.582;2024-03-08T05:17:10;86064.53;;;5.76;49.94
80682;BME280;70045;40.200;44.582;2024-03-08T05:19:39;86058.94;;;5.84;50.59
80682;BME280;70045;40.200;44.582;2024-03-08T05:22:04;86061.09;;;5.93;50.83
80682;BME280;70045;40.200;44.582;2024-03-08T05:24:30;86058.84;;;6.02;51.06
80682;BME280;70045;40.200;44.582;2024-03-08T05:26:55;86063.19;;;6.09;50.22
80682;BME280;70045;40.200;44.582;2024-03-08T05:29:20;86060.94;;;6.18;50.38
80682;BME280;70045;40.200;44.582;2024-03-08T05:31:50;86074.84;;;6.25;50.32
80682;BME280;70045;40.200;44.582;2024-03-08T05:34:16;86059.34;;;6.28;49.92
80682;BME280;70045;40.200;44.582;2024-03-08T05:36:42;86066.63;;;6.37;48.90
80682;BME280;70045;40.200;44.582;2024-03-08T05:39:07;86068.78;;;6.42;49.07
80682;BME280;70045;40.200;44.582;2024-03-08T05:41:35;86071.31;;;6.49;49.53
80682;BME280;70045;40.200;44.582;2024-03-08T05:44:04;86072.34;;;6.55;49.53
80682;BME280;70045;40.200;44.582;2024-03-08T05:46:29;86078.19;;;6.59;50.06
80682;BME280;70045;40.200;44.582;2024-03-08T05:48:54;86077.09;;;6.60;50.07
80682;BME280;70045;40.200;44.582;2024-03-08T05:51:20;86076.28;;;6.67;49.32
80682;BME280;70045;40.200;44.582;2024-03-08T05:53:45;86074.78;;;6.70;49.76
80682;BME280;70045;40.200;44.582;2024-03-08T05:56:14;86080.28;;;6.72;47.98
80682;BME280;70045;40.200;44.582;2024-03-08T05:58:39;86085.81;;;6.70;47.90
80682;BME280;70045;40.200;44.582;2024-03-08T06:01:04;86087.56;;;6.77;48.88
80682;BME280;70045;40.200;44.582;2024-03-08T06:03:30;86091.56;;;6.85;48.88
80682;BME280;70045;40.200;44.582;2024-03-08T06:05:55;86092.97;;;6.90;46.88
80682;BME280;70045;40.200;44.582;2024-03-08T06:08:23;86087.53;;;6.84;47.43
80682;BME280;70045;40.200;44.582;2024-03-08T06:10:49;86091.22;;;6.83;48.60
80682;BME280;70045;40.200;44.582;2024-03-08T06:13:14;86091.13;;;6.90;49.45
80682;BME280;70045;40.200;44.582;2024-03-08T06:15:40;86088.56;;;6.90;48.63
80682;BME280;70045;40.200;44.582;2024-03-08T06:18:05;86091.81;;;6.98;48.59
80682;BME280;70045;40.200;44.582;2024-03-08T06:20:34;86091.34;;;7.07;47.79
80682;BME280;70045;40.200;44.582;2024-03-08T06:23:00;86090.53;;;7.10;48.23
80682;BME280;70045;40.200;44.582;2024-03-08T06:25:28;86090.19;;;7.08;47.46
80682;BME280;70045;40.200;44.582;2024-03-08T06:27:53;86094.50;;;7.18;47.97
80682;BME280;70045;40.200;44.582;2024-03-08T06:30:19;86098.84;;;7.25;47.84
80682;BME280;70045;40.200;44.582;2024-03-08T06:32:47;86103.16;;;7.35;47.93
80682;BME280;70045;40.200;44.582;2024-03-08T06:35:12;86098.63;;;7.43;47.95
80682;BME280;70045;40.200;44.582;2024-03-08T06:37:38;86095.63;;;7.48;47.37
80682;BME280;70045;40.200;44.582;2024-03-08T06:40:03;86093.34;;;7.53;47.56
80682;BME280;70045;40.200;44.582;2024-03-08T06:42:29;86098.16;;;7.51;47.45
80682;BME280;70045;40.200;44.582;2024-03-08T06:44:57;86102.97;;;7.49;47.60
80682;BME280;70045;40.200;44.582;2024-03-08T06:47:23;86105.13;;;7.54;46.96
80682;BME280;70045;40.200;44.582;2024-03-08T06:49:48;86105.16;;;7.51;47.89
80682;BME280;70045;40.200;44.582;2024-03-08T06:52:14;86105.84;;;7.55;48.40
80682;BME280;70045;40.200;44.582;2024-03-08T06:54:39;86104.34;;;7.58;48.65
80682;BME280;70045;40.200;44.582;2024-03-08T06:57:07;86095.53;;;7.55;48.08
80682;BME280;70045;40.200;44.582;2024-03-08T06:59:33;86100.22;;;7.64;48.10
80682;BME280;70045;40.200;44.582;2024-03-08T07:01:58;86104.31;;;7.61;48.21
80682;BME280;70045;40.200;44.582;2024-03-08T07:04:24;86096.94;;;7.60;48.32
80682;BME280;70045;40.200;44.582;2024-03-08T07:06:49;86097.19;;;7.42;48.34
80682;BME280;70045;40.200;44.582;2024-03-08T07:09:17;86095.31;;;7.42;47.75
80682;BME280;70045;40.200;44.582;2024-03-08T07:11:43;86103.53;;;7.64;48.56
80682;BME280;70045;40.200;44.582;2024-03-08T07:14:08;86103.34;;;7.79;48.08
80682;BME280;70045;40.200;44.582;2024-03-08T07:16:34;86112.13;;;7.85;46.75
80682;BME280;70045;40.200;44.582;2024-03-08T07:19:00;86107.69;;;7.85;46.83
80682;BME280;70045;40.200;44.582;2024-03-08T07:21:28;86115.13;;;7.80;46.72
80682;BME280;70045;40.200;44.582;2024-03-08T07:23:56;86112.66;;;7.72;47.03
80682;BME280;70045;40.200;44.582;2024-03-08T07:26:21;86107.56;;;7.65;47.35
80682;BME280;70045;40.200;44.582;2024-03-08T07:28:47;86119.00;;;7.64;46.75
80682;BME280;70045;40.200;44.582;2024-03-08T07:31:12;86114.53;;;7.68;46.93
80682;BME280;70045;40.200;44.582;2024-03-08T07:33:40;86104.63;;;7.63;46.27
80682;BME280;70045;40.200;44.582;2024-03-08T07:36:06;86105.06;;;7.58;47.58
80682;BME280;70045;40.200;44.582;2024-03-08T07:38:31;86106.63;;;7.52;47.17
80682;BME280;70045;40.200;44.582;2024-03-08T07:40:57;86123.31;;;7.44;47.31
80682;BME280;70045;40.200;44.582;2024-03-08T07:43:22;86116.31;;;7.44;48.78
80682;BME280;70045;40.200;44.582;2024-03-08T07:45:50;86121.25;;;7.62;48.61
80682;BME280;70045;40.200;44.582;2024-03-08T07:48:16;86108.00;;;7.60;48.55
80682;BME280;70045;40.200;44.582;2024-03-08T07:50:41;86114.38;;;7.79;48.86
80682;BME280;70045;40.200;44.582;2024-03-08T07:53:07;86112.88;;;7.82;48.49
80682;BME280;70045;40.200;44.582;2024-03-08T07:55:33;86120.88;;;7.91;48.20
80682;BME280;70045;40.200;44.582;2024-03-08T07:58:04;86121.50;;;7.99;47.79
80682;BME280;70045;40.200;44.582;2024-03-08T08:00:30;86120.75;;;7.98;47.91
80682;BME280;70045;40.200;44.582;2024-03-08T08:02:56;86116.44;;;7.91;46.18
80682;BME280;70045;40.200;44.582;2024-03-08T08:05:21;86121.78;;;8.04;44.99
80682;BME280;70045;40.200;44.582;2024-03-08T08:07:47;86117.44;;;8.25;44.49
80682;BME280;70045;40.200;44.582;2024-03-08T08:10:16;86118.00;;;8.36;43.32
80682;BME280;70045;40.200;44.582;2024-03-08T08:12:41;86113.44;;;8.47;43.61
80682;BME280;70045;40.200;44.582;2024-03-08T08:15:07;86124.56;;;8.44;42.30
80682;BME280;70045;40.200;44.582;2024-03-08T08:17:32;86117.53;;;8.45;41.66
80682;BME280;70045;40.200;44.582;2024-03-08T08:19:58;86112.66;;;8.51;39.76
80682;BME280;70045;40.200;44.582;2024-03-08T08:22:26;86112.31;;;8.72;39.96
80682;BME280;70045;40.200;44.582;2024-03-08T08:24:52;86109.56;;;9.23;38.57
80682;BME280;70045;40.200;44.582;2024-03-08T08:27:17;86101.59;;;10.07;37.42
80682;BME280;70045;40.200;44.582;2024-03-08T08:29:43;86106.81;;;10.72;36.18
80682;BME280;70045;40.200;44.582;2024-03-08T08:32:08;86104.50;;;11.07;35.72
80682;BME280;70045;40.200;44.582;2024-03-08T08:34:36;86097.84;;;11.65;34.05
80682;BME280;70045;40.200;44.582;2024-03-08T08:37:02;86099.19;;;12.12;32.85
80682;BME280;70045;40.200;44.582;2024-03-08T08:39:27;86109.66;;;12.59;33.05
80682;BME280;70045;40.200;44.582;2024-03-08T08:41:53;86093.41;;;13.16;32.38
80682;BME280;70045;40.200;44.582;2024-03-08T08:44:18;86095.88;;;13.32;32.07
80682;BME280;70045;40.200;44.582;2024-03-08T08:46:46;86102.97;;;12.71;31.19
80682;BME280;70045;40.200;44.582;2024-03-08T08:49:12;86098.41;;;13.45;29.51
80682;BME280;70045;40.200;44.582;2024-03-08T08:51:37;86091.75;;;14.20;28.33
80682;BME280;70045;40.200;44.582;2024-03-08T08:54:03;86083.91;;;15.10;29.13
80682;BME280;70045;40.200;44.582;2024-03-08T08:56:31;86092.91;;;15.74;27.88
80682;BME280;70045;40.200;44.582;2024-03-08T08:58:59;86082.69;;;16.22;26.69
80682;BME280;70045;40.200;44.582;2024-03-08T09:01:24;86080.03;;;16.41;25.14
80682;BME280;70045;40.200;44.582;2024-03-08T09:03:50;86084.81;;;16.75;27.17
80682;BME280;70045;40.200;44.582;2024-03-08T09:06:16;86077.16;;;17.44;24.90
80682;BME280;70045;40.200;44.582;2024-03-08T09:08:42;86078.38;;;18.12;26.01
80682;BME280;70045;40.200;44.582;2024-03-08T09:11:10;86066.06;;;18.48;22.16
80682;BME280;70045;40.200;44.582;2024-03-08T09:13:36;86082.63;;;17.07;23.49
80682;BME280;70045;40.200;44.582;2024-03-08T09:16:02;86069.88;;;17.63;23.84
80682;BME280;70045;40.200;44.582;2024-03-08T09:18:27;86066.53;;;18.17;24.26
80682;BME280;70045;40.200;44.582;2024-03-08T09:20:53;86065.41;;;18.68;22.20
80682;BME280;70045;40.200;44.582;2024-03-08T09:23:21;86065.56;;;19.15;21.39
80682;BME280;70045;40.200;44.582;2024-03-08T09:25:47;86058.94;;;19.61;21.58
80682;BME280;70045;40.200;44.582;2024-03-08T09:28:12;86060.50;;;20.20;21.05
80682;BME280;70045;40.200;44.582;2024-03-08T09:30:41;86061.03;;;20.87;20.55
80682;BME280;70045;40.200;44.582;2024-03-08T09:33:06;86046.84;;;20.16;20.50
80682;BME280;70045;40.200;44.582;2024-03-08T09:35:34;86054.56;;;20.57;19.00
80682;BME280;70045;40.200;44.582;2024-03-08T09:38:00;86057.16;;;21.15;20.75
80682;BME280;70045;40.200;44.582;2024-03-08T09:40:28;86043.50;;;21.16;17.82
80682;BME280;70045;40.200;44.582;2024-03-08T09:42:53;86039.28;;;21.36;19.21
80682;BME280;70045;40.200;44.582;2024-03-08T09:45:20;86039.28;;;21.41;18.54
80682;BME280;70045;40.200;44.582;2024-03-08T09:47:48;86045.44;;;21.21;17.90
80682;BME280;70045;40.200;44.582;2024-03-08T09:50:14;86038.72;;;19.93;18.51
80682;BME280;70045;40.200;44.582;2024-03-08T09:52:40;86045.25;;;18.00;20.43
80682;BME280;70045;40.200;44.582;2024-03-08T09:55:06;86049.09;;;16.30;22.76
80682;BME280;70045;40.200;44.582;2024-03-08T09:57:36;86054.88;;;14.90;21.41
80682;BME280;70045;40.200;44.582;2024-03-08T10:00:06;86046.19;;;15.11;21.78
80682;BME280;70045;40.200;44.582;2024-03-08T10:02:32;86033.72;;;17.53;22.22
80682;BME280;70045;40.200;44.582;2024-03-08T10:04:58;86030.59;;;17.00;21.76
80682;BME280;70045;40.200;44.582;2024-03-08T10:07:23;86043.88;;;15.41;22.47
80682;BME280;70045;40.200;44.582;2024-03-08T10:09:51;86043.66;;;14.11;23.72
80682;BME280;70045;40.200;44.582;2024-03-08T10:12:20;86034.72;;;14.31;23.74
80682;BME280;70045;40.200;44.582;2024-03-08T10:14:45;86039.16;;;13.81;24.36
80682;BME280;70045;40.200;44.582;2024-03-08T10:17:11;86026.16;;;14.80;22.85
80682;BME280;70045;40.200;44.582;2024-03-08T10:19:36;86031.69;;;15.38;22.69
80682;BME280;70045;40.200;44.582;2024-03-08T10:22:02;86015.22;;;16.35;21.01
80682;BME280;70045;40.200;44.582;2024-03-08T10:24:31;86010.59;;;18.40;19.14
80682;BME280;70045;40.200;44.582;2024-03-08T10:27:00;86015.09;;;19.99;18.25
80682;BME280;70045;40.200;44.582;2024-03-08T10:29:26;86010.31;;;20.29;17.52
80682;BME280;70045;40.200;44.582;2024-03-08T10:31:52;86008.78;;;20.80;16.81
80682;BME280;70045;40.200;44.582;2024-03-08T10:34:17;85999.72;;;21.41;18.65
80682;BME280;70045;40.200;44.582;2024-03-08T10:36:48;86011.13;;;20.41;18.71
80682;BME280;70045;40.200;44.582;2024-03-08T10:39:21;86018.19;;;18.89;19.31
80682;BME280;70045;40.200;44.582;2024-03-08T10:41:53;86009.00;;;16.81;20.21
80682;BME280;70045;40.200;44.582;2024-03-08T10:44:53;86022.94;;;15.69;21.07
80682;BME280;70045;40.200;44.582;2024-03-08T10:47:27;86013.13;;;14.90;22.16
80682;BME280;70045;40.200;44.582;2024-03-08T10:49:55;86028.34;;;14.32;23.21
80682;BME280;70045;40.200;44.582;2024-03-08T10:52:24;86025.31;;;13.93;22.82
80682;BME280;70045;40.200;44.582;2024-03-08T10:54:52;86025.63;;;13.42;23.25
80682;BME280;70045;40.200;44.582;2024-03-08T10:57:18;86016.88;;;12.91;23.93
80682;BME280;70045;40.200;44.582;2024-03-08T10:59:47;86017.53;;;13.05;22.90
80682;BME280;70045;40.200;44.582;2024-03-08T11:02:13;86004.38;;;13.21;23.50
80682;BME280;70045;40.200;44.582;2024-03-08T11:04:39;86025.38;;;13.27;23.86
80682;BME280;70045;40.200;44.582;2024-03-08T11:07:12;86026.50;;;11.82;24.48
80682;BME280;70045;40.200;44.582;2024-03-08T11:09:38;86038.78;;;11.27;26.05
80682;BME280;70045;40.200;44.582;2024-03-08T11:12:27;86027.69;;;11.39;26.00
80682;BME280;70045;40.200;44.582;2024-03-08T11:14:53;86028.56;;;11.62;25.48
80682;BME280;70045;40.200;44.582;2024-03-08T11:17:39;86027.88;;;12.00;25.41
80682;BME280;70045;40.200;44.582;2024-03-08T11:20:14;86018.69;;;12.34;24.85
80682;BME280;70045;40.200;44.582;2024-03-08T11:22:48;86016.69;;;12.51;24.51
80682;BME280;70045;40.200;44.582;2024-03-08T11:25:37;86019.59;;;12.53;24.20
80682;BME280;70045;40.200;44.582;2024-03-08T11:28:17;86019.94;;;12.77;25.53
80682;BME280;70045;40.200;44.582;2024-03-08T11:30:44;86017.75;;;13.32;24.00
80682;BME280;70045;40.200;44.582;2024-03-08T11:33:13;86002.13;;;13.32;23.87
80682;BME280;70045;40.200;44.582;2024-03-08T11:35:39;86007.19;;;13.14;23.81
80682;BME280;70045;40.200;44.582;2024-03-08T11:38:04;86000.72;;;12.61;24.77
80682;BME280;70045;40.200;44.582;2024-03-08T11:40:30;86013.97;;;12.54;25.92
80682;BME280;70045;40.200;44.582;2024-03-08T11:42:55;86012.03;;;13.03;25.01
80682;BME280;70045;40.200;44.582;2024-03-08T11:45:23;86013.13;;;12.57;24.18
80682;BME280;70045;40.200;44.582;2024-03-08T11:47:49;86016.22;;;12.17;23.85
80682;BME280;70045;40.200;44.582;2024-03-08T11:50:17;86017.69;;;11.93;24.79
80682;BME280;70045;40.200;44.582;2024-03-08T11:52:43;86022.09;;;11.41;25.72
80682;BME280;70045;40.200;44.582;2024-03-08T11:55:09;86018.50;;;10.80;25.88
80682;BME280;70045;40.200;44.582;2024-03-08T11:57:40;86011.75;;;11.11;26.11
80682;BME280;70045;40.200;44.582;2024-03-08T12:00:06;86024.53;;;11.06;26.02
80682;BME280;70045;40.200;44.582;2024-03-08T12:02:32;86023.06;;;11.05;25.92
80682;BME280;70045;40.200;44.582;2024-03-08T12:04:59;86020.06;;;10.77;26.67
80682;BME280;70045;40.200;44.582;2024-03-08T12:07:25;86031.19;;;10.61;26.70
80682;BME280;70045;40.200;44.582;2024-03-08T12:10:16;86025.66;;;11.18;26.17
80682;BME280;70045;40.200;44.582;2024-03-08T12:12:44;86033.59;;;11.27;25.54
80682;BME280;70045;40.200;44.582;2024-03-08T12:15:10;86010.72;;;14.45;24.02
80682;BME280;70045;40.200;44.582;2024-03-08T12:17:36;86006.47;;;17.35;21.52
80682;BME280;70045;40.200;44.582;2024-03-08T12:20:31;85986.06;;;19.41;17.88
80682;BME280;70045;40.200;44.582;2024-03-08T12:22:57;85994.25;;;20.21;17.96
80682;BME280;70045;40.200;44.582;2024-03-08T12:37:25;86009.34;;;20.26;16.84
80682;BME280;70045;40.200;44.582;2024-03-08T12:39:54;85998.84;;;21.50;15.82
80682;BME280;70045;40.200;44.582;2024-03-08T12:42:20;85993.22;;;22.70;15.71
80682;BME280;70045;40.200;44.582;2024-03-08T12:44:45;85991.81;;;22.75;15.06
80682;BME280;70045;40.200;44.582;2024-03-08T12:47:10;86002.47;;;21.70;15.81
80682;BME280;70045;40.200;44.582;2024-03-08T12:49:39;85989.53;;;21.66;14.75
80682;BME280;70045;40.200;44.582;2024-03-08T12:52:09;85982.19;;;22.55;14.10
80682;BME280;70045;40.200;44.582;2024-03-08T12:54:35;85993.94;;;22.88;14.41
80682;BME280;70045;40.200;44.582;2024-03-08T12:57:00;85991.06;;;22.18;14.06
80682;BME280;70045;40.200;44.582;2024-03-08T12:59:26;85985.03;;;22.91;13.99
80682;BME280;70045;40.200;44.582;2024-03-08T13:01:54;86000.91;;;20.86;15.78
80682;BME280;70045;40.200;44.582;2024-03-08T13:04:19;85998.81;;;18.86;17.08
80682;BME280;70045;40.200;44.582;2024-03-08T13:06:45;86001.63;;;17.58;18.13
80682;BME280;70045;40.200;44.582;2024-03-08T13:09:10;86001.06;;;16.75;19.18